createdAt,value
2018-05-13T00:00:42.704Z,20.27
2018-05-13T00:03:10.336Z,21.73
2018-05-13T00:05:38.020Z,19.67
2018-05-13T00:08:05.646Z,19.87
2018-05-13T00:10:33.988Z,20.87
2018-05-13T00:13:01.627Z,19.87
2018-05-13T00:15:29.243Z,20.27
2018-05-13T00:17:58.425Z,18.63
2018-05-13T00:20:26.027Z,19.20
2018-05-13T00:22:53.614Z,19.30
2018-05-13T00:25:21.405Z,20.80
2018-05-13T00:27:49.048Z,19.97
2018-05-13T00:30:16.653Z,19.00
2018-05-13T00:32:44.282Z,20.63
2018-05-13T00:35:12.227Z,20.20
2018-05-13T00:37:39.900Z,20.77
2018-05-13T00:40:07.560Z,20.77
2018-05-13T00:42:35.150Z,20.53
2018-05-13T00:45:02.891Z,19.30
2018-05-13T00:47:30.490Z,22.03
2018-05-13T00:49:58.069Z,21.43
2018-05-13T00:52:25.656Z,21.10
2018-05-13T00:54:55.204Z,21.73
2018-05-13T00:57:22.794Z,23.60
2018-05-13T00:59:51.159Z,20.17
2018-05-13T01:02:19.522Z,21.20
2018-05-13T01:04:47.261Z,21.63
2018-05-13T01:07:14.856Z,20.10
2018-05-13T01:09:42.429Z,19.97
2018-05-13T01:12:10.054Z,20.57
2018-05-13T01:14:37.653Z,18.97
2018-05-13T01:17:05.268Z,20.73
2018-05-13T01:19:32.880Z,19.03
2018-05-13T01:22:01.299Z,19.80
2018-05-13T01:24:29.005Z,21.60
2018-05-13T01:26:56.603Z,20.13
2018-05-13T01:29:24.275Z,19.77
2018-05-13T01:31:51.866Z,20.43
2018-05-13T01:34:19.533Z,20.60
2018-05-13T01:36:47.122Z,19.10
2018-05-13T01:39:14.738Z,21.03
2018-05-13T01:41:42.318Z,21.10
2018-05-13T01:44:09.923Z,19.97
2018-05-13T01:46:37.759Z,19.60
2018-05-13T01:49:05.413Z,18.87
2018-05-13T01:51:32.991Z,19.80
2018-05-13T01:54:00.580Z,19.90
2018-05-13T01:56:28.942Z,20.40
2018-05-13T01:58:56.554Z,20.70
2018-05-13T02:01:24.165Z,20.00
2018-05-13T02:03:51.831Z,20.27
2018-05-13T02:06:19.432Z,19.30
2018-05-13T02:08:47.189Z,18.53
2018-05-13T02:11:14.977Z,21.03
2018-05-13T02:13:42.546Z,20.43
2018-05-13T02:16:10.219Z,19.40
2018-05-13T02:18:38.454Z,20.50
2018-05-13T02:21:06.041Z,21.33
2018-05-13T02:23:33.661Z,20.17
2018-05-13T02:26:02.040Z,19.77
2018-05-13T02:28:30.416Z,19.03
2018-05-13T02:30:58.806Z,18.17
2018-05-13T02:33:27.214Z,18.77
2018-05-13T02:35:54.895Z,19.60
2018-05-13T02:38:22.686Z,20.67
2018-05-13T02:40:50.296Z,18.97
2018-05-13T02:43:17.884Z,18.57
2018-05-13T02:45:46.014Z,18.60
2018-05-13T02:48:14.378Z,20.27
2018-05-13T02:50:42.718Z,19.23
2018-05-13T02:53:10.440Z,19.73
2018-05-13T02:55:38.025Z,17.00
2018-05-13T02:58:05.608Z,19.20
2018-05-13T03:00:33.174Z,18.30
2018-05-13T03:03:00.753Z,18.27
2018-05-13T03:05:28.329Z,18.37
2018-05-13T03:07:55.893Z,18.67
2018-05-13T03:10:24.286Z,19.73
2018-05-13T03:12:52.775Z,19.73
2018-05-13T03:15:20.366Z,19.80
2018-05-13T03:17:47.943Z,19.70
2018-05-13T03:20:15.525Z,19.17
2018-05-13T03:22:43.316Z,18.53
2018-05-13T03:25:10.904Z,18.10
2018-05-13T03:27:38.477Z,17.83
2018-05-13T03:30:06.104Z,19.20
2018-05-13T03:32:34.642Z,20.20
2018-05-13T03:35:02.254Z,20.10
2018-05-13T03:37:29.963Z,20.00
2018-05-13T03:39:57.584Z,20.30
2018-05-13T03:42:25.190Z,22.27
2018-05-13T03:44:52.907Z,21.33
2018-05-13T03:47:20.803Z,20.57
2018-05-13T03:49:48.396Z,20.70
2018-05-13T03:52:16.013Z,22.13
2018-05-13T03:54:43.608Z,22.97
2018-05-13T03:57:11.201Z,23.07
2018-05-13T03:59:39.590Z,23.00
2018-05-13T04:02:07.994Z,23.23
2018-05-13T04:04:35.579Z,24.43
2018-05-13T04:07:03.212Z,22.67
2018-05-13T04:09:43.503Z,21.33
2018-05-13T04:12:22.855Z,21.20
2018-05-13T04:17:53.399Z,21.77
2018-05-13T04:20:21.013Z,23.60
2018-05-13T04:22:48.604Z,21.57
2018-05-13T04:25:16.550Z,21.27
2018-05-13T04:27:44.873Z,23.23
2018-05-13T04:30:12.515Z,21.30
2018-05-13T04:32:40.124Z,21.63
2018-05-13T04:35:07.731Z,21.87
2018-05-13T04:37:35.346Z,22.53
2018-05-13T04:40:03.729Z,23.70
2018-05-13T04:42:32.077Z,21.37
2018-05-13T04:44:59.652Z,22.90
2018-05-13T04:47:27.330Z,21.73
2018-05-13T04:49:55.702Z,22.47
2018-05-13T04:52:23.298Z,21.47
2018-05-13T04:54:50.913Z,21.63
2018-05-13T04:57:18.528Z,20.80
2018-05-13T04:59:46.127Z,21.97
2018-05-13T05:02:13.715Z,20.90
2018-05-13T05:04:41.316Z,21.97
2018-05-13T05:07:09.464Z,21.80
2018-05-13T05:09:37.794Z,22.47
2018-05-13T05:12:05.365Z,21.83
2018-05-13T05:14:32.965Z,20.90
2018-05-13T05:17:00.565Z,21.10
2018-05-13T05:19:28.155Z,20.97
2018-05-13T05:21:55.749Z,22.00
2018-05-13T05:24:24.137Z,20.67
2018-05-13T05:26:52.471Z,21.00
2018-05-13T05:29:20.044Z,20.80
2018-05-13T05:31:47.665Z,21.17
2018-05-13T05:34:15.277Z,19.37
2018-05-13T05:36:42.969Z,21.27
2018-05-13T05:39:11.437Z,20.83
2018-05-13T05:41:39.811Z,21.77
2018-05-13T05:44:07.408Z,22.93
2018-05-13T05:46:35.008Z,21.90
2018-05-13T05:49:02.607Z,22.40
2018-05-13T05:51:30.792Z,20.13
2018-05-13T05:53:58.391Z,21.20
2018-05-13T05:56:25.953Z,20.60
2018-05-13T05:58:53.546Z,21.33
2018-05-13T06:01:21.118Z,23.20
2018-05-13T06:03:48.716Z,19.87
2018-05-13T06:06:16.323Z,20.70
2018-05-13T06:08:43.911Z,20.77
2018-05-13T06:11:12.283Z,20.83
2018-05-13T06:13:40.658Z,21.27
2018-05-13T06:16:09.016Z,22.00
2018-05-13T06:18:36.588Z,20.30
2018-05-13T06:21:04.174Z,20.57
2018-05-13T06:23:31.751Z,19.37
2018-05-13T06:25:59.459Z,21.80
2018-05-13T06:28:27.062Z,20.13
2018-05-13T06:30:54.645Z,18.37
2018-05-13T06:33:22.262Z,21.03
2018-05-13T06:35:49.860Z,19.93
2018-05-13T06:38:17.690Z,19.83
2018-05-13T06:40:45.283Z,20.50
2018-05-13T06:43:12.877Z,17.90
2018-05-13T06:45:40.465Z,19.60
2018-05-13T06:48:08.092Z,20.13
2018-05-13T06:50:35.665Z,19.13
2018-05-13T06:53:03.694Z,18.70
2018-05-13T06:55:31.335Z,16.13
2018-05-13T06:57:58.926Z,18.50
2018-05-13T07:00:26.492Z,17.27
2018-05-13T07:02:54.680Z,18.40
2018-05-13T07:05:22.250Z,17.47
2018-05-13T07:07:49.943Z,16.93
2018-05-13T07:10:17.554Z,20.40
2018-05-13T07:12:45.141Z,18.50
2018-05-13T07:15:12.742Z,18.98
2018-05-13T07:17:40.352Z,18.23
2018-05-13T07:20:08.710Z,20.33
2018-05-13T07:22:36.316Z,19.57
2018-05-13T07:25:03.920Z,17.27
2018-05-13T07:27:31.522Z,18.90
2018-05-13T07:29:59.161Z,16.73
2018-05-13T07:32:26.723Z,15.75
2018-05-13T07:34:54.319Z,16.17
2018-05-13T07:37:21.904Z,14.95
2018-05-13T07:39:49.506Z,15.88
2018-05-13T07:42:17.098Z,14.23
2018-05-13T07:44:45.426Z,17.08
2018-05-13T07:47:13.787Z,15.48
2018-05-13T07:49:41.395Z,16.15
2018-05-13T07:52:08.993Z,17.30
2018-05-13T07:54:36.580Z,14.30
2018-05-13T07:57:04.214Z,14.68
2018-05-13T07:59:31.928Z,15.57
2018-05-13T08:02:00.408Z,17.90
2018-05-13T08:04:28.015Z,18.77
2018-05-13T08:06:55.733Z,15.85
2018-05-13T08:09:24.074Z,15.32
2018-05-13T08:11:51.671Z,15.85
2018-05-13T08:14:20.016Z,16.60
2018-05-13T08:16:47.598Z,16.12
2018-05-13T08:19:15.184Z,18.25
2018-05-13T08:21:42.762Z,16.58
2018-05-13T08:24:10.355Z,19.87
2018-05-13T08:26:37.948Z,15.55
2018-05-13T08:29:05.544Z,16.73
2018-05-13T08:31:33.141Z,18.58
2018-05-13T08:34:00.726Z,17.98
2018-05-13T08:36:28.314Z,17.92
2018-05-13T08:38:55.909Z,16.58
2018-05-13T08:41:23.501Z,17.60
2018-05-13T08:43:51.093Z,14.85
2018-05-13T08:46:19.438Z,16.95
2018-05-13T08:48:47.032Z,16.23
2018-05-13T08:51:15.394Z,15.02
2018-05-13T08:53:42.988Z,16.98
2018-05-13T08:56:10.595Z,14.50
2018-05-13T08:58:38.195Z,14.50
2018-05-13T09:01:06.558Z,16.83
2018-05-13T09:03:35.560Z,15.60
2018-05-13T09:06:03.963Z,15.38
2018-05-13T09:08:31.570Z,15.77
2018-05-13T09:10:59.184Z,15.32
2018-05-13T09:13:26.773Z,13.77
2018-05-13T09:15:54.332Z,12.35
2018-05-13T09:18:21.925Z,12.98
2018-05-13T09:20:49.549Z,11.90
2018-05-13T09:23:17.149Z,12.95
2018-05-13T09:25:44.712Z,12.02
2018-05-13T09:28:12.313Z,11.10
2018-05-13T09:30:39.903Z,12.65
2018-05-13T09:33:07.562Z,12.70
2018-05-13T09:35:35.078Z,12.60
2018-05-13T09:38:02.647Z,12.25
2018-05-13T09:40:30.293Z,12.85
2018-05-13T09:42:57.880Z,14.50
2018-05-13T09:45:25.535Z,13.75
2018-05-13T09:47:53.916Z,11.82
2018-05-13T09:50:21.505Z,12.93
2018-05-13T09:52:49.096Z,12.93
2018-05-13T09:55:16.700Z,12.52
2018-05-13T09:57:44.548Z,13.62
2018-05-13T10:00:12.156Z,12.65
2018-05-13T10:02:39.738Z,11.20
2018-05-13T10:05:07.340Z,11.43
2018-05-13T10:07:35.071Z,11.15
2018-05-13T10:10:02.684Z,11.40
2018-05-13T10:12:30.253Z,12.57
2018-05-13T10:14:57.850Z,13.48
2018-05-13T10:17:25.436Z,10.88
2018-05-13T10:19:53.037Z,12.07
2018-05-13T10:22:21.903Z,11.65
2018-05-13T10:24:50.266Z,10.65
2018-05-13T10:27:18.001Z,9.68
2018-05-13T10:29:45.745Z,9.85
2018-05-13T10:32:13.337Z,13.57
2018-05-13T10:34:40.934Z,13.13
2018-05-13T10:37:08.532Z,13.38
2018-05-13T10:39:36.122Z,12.90
2018-05-13T10:42:03.713Z,13.48
2018-05-13T10:44:32.100Z,14.43
2018-05-13T10:47:00.470Z,14.55
2018-05-13T10:49:28.086Z,15.63
2018-05-13T10:51:56.245Z,13.20
2018-05-13T10:54:23.807Z,12.85
2018-05-13T10:56:51.514Z,11.27
2018-05-13T10:59:19.104Z,17.90
2018-05-13T11:01:46.671Z,14.75
2018-05-13T11:04:14.289Z,17.12
2018-05-13T11:06:41.894Z,18.20
2018-05-13T11:09:09.623Z,16.33
2018-05-13T11:11:37.238Z,14.93
2018-05-13T11:14:04.847Z,13.15
2018-05-13T11:16:32.434Z,14.93
2018-05-13T11:19:00.809Z,13.82
2018-05-13T11:21:28.402Z,14.35
2018-05-13T11:23:55.987Z,12.20
2018-05-13T11:26:23.586Z,11.70
2018-05-13T11:28:51.168Z,11.15
2018-05-13T11:31:18.757Z,9.10
2018-05-13T11:33:46.569Z,9.02
2018-05-13T11:36:14.102Z,10.23
2018-05-13T11:38:41.683Z,9.77
2018-05-13T11:41:09.275Z,9.50
2018-05-13T11:43:36.860Z,9.55
2018-05-13T11:46:04.476Z,8.18
2018-05-13T11:48:32.132Z,9.85
2018-05-13T11:50:59.714Z,10.10
2018-05-13T11:53:27.291Z,8.38
2018-05-13T11:55:54.920Z,9.07
2018-05-13T11:58:22.490Z,8.48
2018-05-13T12:00:50.391Z,8.38
2018-05-13T12:03:18.025Z,8.32
2018-05-13T12:05:45.638Z,8.00
2018-05-13T12:08:13.303Z,13.55
2018-05-13T12:10:41.079Z,9.30
2018-05-13T12:13:08.697Z,8.38
2018-05-13T12:15:36.322Z,10.02
2018-05-13T12:18:05.819Z,8.88
2018-05-13T12:20:33.410Z,9.23
2018-05-13T12:23:01.006Z,8.48
2018-05-13T12:25:28.613Z,9.90
2018-05-13T12:27:56.378Z,9.95
2018-05-13T12:30:24.007Z,10.43
2018-05-13T12:32:51.592Z,9.73
2018-05-13T12:35:19.259Z,10.13
2018-05-13T12:37:46.917Z,9.43
2018-05-13T12:40:14.516Z,9.93
2018-05-13T12:42:42.872Z,9.70
2018-05-13T12:45:10.470Z,8.73
2018-05-13T12:47:38.826Z,8.73
2018-05-13T12:50:06.547Z,9.35
2018-05-13T12:52:34.082Z,8.57
2018-05-13T12:55:01.669Z,9.98
2018-05-13T12:57:29.272Z,9.18
2018-05-13T12:59:56.851Z,8.52
2018-05-13T13:02:24.507Z,8.00
2018-05-13T13:04:52.105Z,7.28
2018-05-13T13:07:19.660Z,8.55
2018-05-13T13:09:47.245Z,9.43
2018-05-13T13:12:14.854Z,10.85
2018-05-13T13:14:43.218Z,10.38
2018-05-13T13:17:10.862Z,8.50
2018-05-13T13:19:38.434Z,10.43
2018-05-13T13:22:06.037Z,9.98
2018-05-13T13:24:33.653Z,11.30
2018-05-13T13:27:01.250Z,10.13
2018-05-13T13:29:29.592Z,9.60
2018-05-13T13:31:57.178Z,10.43
2018-05-13T13:34:24.789Z,10.05
2018-05-13T13:36:52.389Z,11.27
2018-05-13T13:39:20.021Z,10.88
2018-05-13T13:41:47.609Z,9.88
2018-05-13T13:44:15.260Z,10.20
2018-05-13T13:46:43.377Z,11.40
2018-05-13T13:49:11.911Z,10.75
2018-05-13T13:51:39.544Z,10.63
2018-05-13T13:54:07.150Z,11.23
2018-05-13T13:56:34.736Z,10.50
2018-05-13T13:59:03.098Z,10.43
2018-05-13T14:01:30.678Z,10.82
2018-05-13T14:03:58.282Z,11.52
2018-05-13T14:06:25.920Z,10.07
2018-05-13T14:08:53.532Z,11.30
2018-05-13T14:11:21.120Z,10.00
2018-05-13T14:13:48.713Z,10.45
2018-05-13T14:16:16.356Z,10.57
2018-05-13T14:18:43.922Z,10.55
2018-05-13T14:21:11.522Z,9.38
2018-05-13T14:23:39.085Z,9.57
2018-05-13T14:26:06.685Z,10.55
2018-05-13T14:28:35.037Z,9.30
2018-05-13T14:31:02.620Z,9.65
2018-05-13T14:33:30.209Z,9.65
2018-05-13T14:35:58.557Z,9.23
2018-05-13T14:38:26.180Z,9.40
2018-05-13T14:40:53.875Z,10.30
2018-05-13T14:43:21.409Z,9.65
2018-05-13T14:45:48.994Z,9.25
2018-05-13T14:48:16.641Z,8.70
2018-05-13T14:50:44.234Z,7.55
2018-05-13T14:53:11.859Z,7.25
2018-05-13T14:55:39.422Z,7.37
2018-05-13T14:58:07.000Z,7.53
2018-05-13T15:00:34.612Z,8.00
2018-05-13T15:03:02.216Z,8.13
2018-05-13T15:05:29.825Z,8.40
2018-05-13T15:07:57.468Z,10.10
2018-05-13T15:10:25.100Z,12.27
2018-05-13T15:12:52.732Z,12.90
2018-05-13T15:15:20.310Z,13.90
2018-05-13T15:17:47.914Z,13.07
2018-05-13T15:20:15.499Z,14.13
2018-05-13T15:22:43.106Z,14.37
2018-05-13T15:25:11.023Z,13.90
2018-05-13T15:27:38.705Z,12.87
2018-05-13T15:30:06.267Z,13.83
2018-05-13T15:32:33.871Z,12.13
2018-05-13T15:35:01.480Z,12.43
2018-05-13T15:37:29.049Z,12.53
2018-05-13T15:39:57.724Z,11.43
2018-05-13T15:42:25.380Z,11.27
2018-05-13T15:44:52.955Z,9.97
2018-05-13T15:47:20.540Z,9.63
2018-05-13T15:49:48.254Z,10.13
2018-05-13T15:52:16.647Z,12.37
2018-05-13T15:54:44.986Z,13.97
2018-05-13T15:57:12.722Z,15.97
2018-05-13T15:59:40.317Z,15.77
2018-05-13T16:02:08.027Z,15.90
2018-05-13T16:04:35.715Z,15.27
2018-05-13T16:07:03.334Z,13.70
2018-05-13T16:09:30.925Z,14.60
2018-05-13T16:11:58.525Z,15.87
2018-05-13T16:14:26.111Z,15.20
2018-05-13T16:16:53.705Z,15.77
2018-05-13T16:19:21.293Z,14.53
2018-05-13T16:21:48.897Z,14.50
2018-05-13T16:24:17.282Z,14.97
2018-05-13T16:26:45.758Z,16.50
2018-05-13T16:29:13.380Z,17.97
2018-05-13T16:31:40.992Z,19.30
2018-05-13T16:34:08.575Z,22.17
2018-05-13T16:36:36.171Z,23.47
2018-05-13T16:39:03.801Z,24.77
2018-05-13T16:41:31.793Z,26.13
2018-05-13T16:44:00.074Z,24.03
2018-05-13T16:46:27.782Z,23.90
2018-05-13T16:48:55.541Z,25.00
2018-05-13T16:51:23.105Z,23.73
2018-05-13T16:53:51.982Z,23.50
2018-05-13T16:56:19.565Z,24.67
2018-05-13T16:58:47.154Z,27.00
2018-05-13T17:01:14.797Z,28.23
2018-05-13T17:03:42.369Z,23.97
2018-05-13T17:06:09.971Z,27.10
2018-05-13T17:08:37.557Z,23.00
2018-05-13T17:11:05.177Z,23.30
2018-05-13T17:13:32.761Z,24.27
2018-05-13T17:16:00.341Z,21.20
2018-05-13T17:18:27.925Z,22.13
2018-05-13T17:20:55.575Z,19.07
2018-05-13T17:23:23.163Z,19.30
2018-05-13T17:25:50.758Z,16.90
2018-05-13T17:28:19.134Z,17.00
2018-05-13T17:30:47.745Z,16.03
2018-05-13T17:33:15.369Z,16.30
2018-05-13T17:35:42.965Z,15.33
2018-05-13T17:38:10.614Z,16.47
2018-05-13T17:40:38.202Z,17.07
2018-05-13T17:43:05.780Z,16.47
2018-05-13T17:45:34.140Z,16.93
2018-05-13T17:48:01.761Z,15.67
2018-05-13T17:50:29.362Z,14.93
2018-05-13T17:52:56.973Z,15.00
2018-05-13T17:55:24.560Z,13.57
2018-05-13T17:57:52.201Z,13.97
2018-05-13T18:00:19.771Z,12.67
2018-05-13T18:02:47.365Z,12.40
2018-05-13T18:05:14.947Z,10.43
2018-05-13T18:07:42.538Z,12.87
2018-05-13T18:12:43.944Z,12.60
2018-05-13T18:15:11.557Z,13.10
2018-05-13T18:17:39.212Z,17.40
2018-05-13T18:20:06.833Z,25.30
2018-05-13T18:22:34.441Z,31.30
2018-05-13T18:25:02.030Z,30.67
2018-05-13T18:27:29.648Z,33.07
2018-05-13T18:29:57.254Z,34.90
2018-05-13T18:32:24.846Z,32.20
2018-05-13T18:34:52.513Z,31.47
2018-05-13T18:37:20.106Z,35.27
2018-05-13T18:39:47.693Z,37.23
2018-05-13T18:42:15.277Z,40.83
2018-05-13T18:44:42.904Z,41.80
2018-05-13T18:47:11.651Z,42.63
2018-05-13T18:49:39.251Z,42.17
2018-05-13T18:52:06.869Z,41.60
2018-05-13T18:54:34.489Z,45.97
2018-05-13T18:57:02.198Z,39.47
2018-05-13T18:59:29.809Z,43.63
2018-05-13T19:01:57.429Z,41.47
2018-05-13T19:04:25.051Z,43.00
2018-05-13T19:06:52.650Z,39.20
2018-05-13T19:09:20.232Z,41.37
2018-05-13T19:11:47.847Z,41.63
2018-05-13T19:14:15.444Z,47.00
2018-05-13T19:16:43.039Z,47.50
2018-05-13T19:19:10.635Z,51.53
2018-05-13T19:21:38.237Z,51.23
2018-05-13T19:24:06.650Z,55.27
2018-05-13T19:26:34.253Z,56.13
2018-05-13T19:29:01.841Z,56.67
2018-05-13T19:31:30.193Z,57.77
2018-05-13T19:33:57.808Z,58.80
2018-05-13T19:38:59.317Z,57.30
2018-05-13T19:41:26.906Z,58.03
2018-05-13T19:43:54.514Z,56.93
2018-05-13T19:46:22.109Z,54.57
2018-05-13T19:48:49.701Z,53.10
2018-05-13T19:51:17.285Z,53.07
2018-05-13T19:53:44.846Z,54.60
2018-05-13T19:56:12.439Z,52.60
2018-05-13T19:58:40.246Z,53.20
2018-05-13T20:01:08.690Z,51.30
2018-05-13T20:03:36.392Z,49.80
2018-05-13T20:06:03.953Z,49.20
2018-05-13T20:08:31.566Z,47.47
2018-05-13T20:10:59.159Z,47.40
2018-05-13T20:13:26.760Z,45.47
2018-05-13T20:15:54.373Z,45.40
2018-05-13T20:18:22.007Z,44.37
2018-05-13T20:20:49.582Z,45.33
2018-05-13T20:23:24.991Z,46.30
2018-05-13T20:25:52.625Z,45.93
2018-05-13T20:28:21.419Z,45.67
2018-05-13T20:30:48.995Z,45.70
2018-05-13T20:33:16.589Z,45.83
2018-05-13T20:35:44.945Z,46.47
2018-05-13T20:38:12.529Z,47.53
2018-05-13T20:40:40.130Z,47.13
2018-05-13T20:45:41.553Z,46.93
2018-05-13T20:48:09.169Z,47.80
2018-05-13T20:50:39.748Z,46.50
2018-05-13T20:53:07.353Z,46.30
2018-05-13T20:55:34.977Z,44.37
2018-05-13T20:58:02.710Z,43.67
2018-05-13T21:00:30.405Z,42.70
2018-05-13T21:02:57.986Z,41.73
2018-05-13T21:05:25.615Z,41.17
2018-05-13T21:07:53.258Z,39.83
2018-05-13T21:10:20.854Z,40.47
2018-05-13T21:12:48.453Z,39.77
2018-05-13T21:15:16.039Z,42.50
2018-05-13T21:17:44.387Z,40.60
2018-05-13T21:20:11.973Z,42.37
2018-05-13T21:22:39.545Z,44.03
2018-05-13T21:25:07.179Z,42.17
2018-05-13T21:27:34.745Z,39.80
2018-05-13T21:30:02.336Z,40.40
2018-05-13T21:32:30.712Z,38.33
2018-05-13T21:34:59.079Z,36.37
2018-05-13T21:37:27.437Z,36.83
2018-05-13T21:39:55.024Z,37.33
2018-05-13T21:42:22.596Z,35.73
2018-05-13T21:44:50.194Z,32.13
2018-05-13T21:47:17.884Z,31.87
2018-05-13T21:49:45.501Z,32.57
2018-05-13T21:52:13.069Z,31.83
2018-05-13T21:54:40.718Z,31.93
2018-05-13T21:57:08.308Z,29.00
2018-05-13T21:59:35.897Z,28.33
2018-05-13T22:02:03.505Z,29.77
2018-05-13T22:04:31.093Z,28.17
2018-05-13T22:06:58.724Z,28.00
2018-05-13T22:09:26.322Z,30.37
2018-05-13T22:11:53.911Z,29.67
2018-05-13T22:14:21.519Z,27.73
2018-05-13T22:16:49.220Z,26.80
2018-05-13T22:19:16.825Z,33.37
2018-05-13T22:21:44.403Z,34.27
2018-05-13T22:24:12.036Z,36.87
2018-05-13T22:26:39.653Z,40.23
2018-05-13T22:29:07.427Z,34.07
2018-05-13T22:31:34.999Z,39.00
2018-05-13T22:34:02.566Z,39.07
2018-05-13T22:36:30.199Z,38.87
2018-05-13T22:38:57.758Z,34.90
2018-05-13T22:41:25.336Z,33.27
2018-05-13T22:43:52.925Z,31.43
2018-05-13T22:46:20.512Z,27.50
2018-05-13T22:48:48.157Z,26.37
2018-05-13T22:51:15.743Z,28.70
2018-05-13T22:53:43.341Z,25.67
2018-05-13T22:56:10.920Z,23.93
2018-05-13T22:58:38.506Z,23.13
2018-05-13T23:01:07.008Z,21.30
2018-05-13T23:03:34.589Z,20.87
2018-05-13T23:06:02.177Z,21.67
2018-05-13T23:08:29.851Z,21.33
2018-05-13T23:10:57.438Z,20.10
2018-05-13T23:13:25.046Z,22.07
2018-05-13T23:15:52.630Z,20.93
2018-05-13T23:18:20.211Z,20.80
2018-05-13T23:20:48.567Z,20.33
2018-05-13T23:23:16.161Z,19.40
2018-05-13T23:25:44.512Z,19.13
2018-05-13T23:28:12.110Z,19.43
2018-05-13T23:30:40.222Z,18.73
2018-05-13T23:33:07.822Z,17.10
2018-05-13T23:35:35.413Z,17.17
2018-05-13T23:38:03.045Z,18.77
2018-05-13T23:40:30.628Z,18.87
2018-05-13T23:42:58.228Z,18.10
2018-05-13T23:45:25.809Z,18.33
2018-05-13T23:47:53.396Z,17.83
2018-05-13T23:50:21.007Z,17.63
2018-05-13T23:52:48.658Z,17.13
2018-05-13T23:55:16.249Z,19.80
2018-05-13T23:57:43.828Z,21.23
